sensor_id;sensor_type;location;lat;lon;timestamp;pressure;altitude;pressure_sealevel;temperature;humidity
78170;BME280;67412;49.892;14.490;2023-07-28T00:00:26;96457.50;;;15.14;100.00
78170;BME280;67412;49.892;14.490;2023-07-28T00:02:51;96456.66;;;15.13;100.00
78170;BME280;67412;49.892;14.490;2023-07-28T00:05:16;96454.97;;;15.12;100.00
78170;BME280;67412;49.892;14.490;2023-07-28T00:07:42;96459.97;;;15.17;100.00
78170;BME280;67412;49.892;14.490;2023-07-28T00:10:07;96456.94;;;15.07;100.00
78170;BME280;67412;49.892;14.490;2023-07-28T00:12:34;96458.63;;;15.08;100.00
78170;BME280;67412;49.892;14.490;2023-07-28T00:14:59;96456.81;;;15.10;100.00
78170;BME280;67412;49.892;14.490;2023-07-28T00:17:25;96455.63;;;15.17;100.00
78170;BME280;67412;49.892;14.490;2023-07-28T00:19:50;96447.16;;;15.14;100.00
78170;BME280;67412;49.892;14.490;2023-07-28T00:22:16;96454.22;;;15.10;100.00
78170;BME280;67412;49.892;14.490;2023-07-28T00:24:41;96448.75;;;15.16;100.00
78170;BME280;67412;49.892;14.490;2023-07-28T00:27:06;96440.78;;;15.21;100.00
78170;BME280;67412;49.892;14.490;2023-07-28T00:29:32;96453.09;;;15.16;100.00
78170;BME280;67412;49.892;14.490;2023-07-28T00:31:57;96439.94;;;15.20;100.00
78170;BME280;67412;49.892;14.490;2023-07-28T00:34:22;96447.72;;;15.20;100.00
78170;BME280;67412;49.892;14.490;2023-07-28T00:36:48;96450.16;;;15.23;100.00
78170;BME280;67412;49.892;14.490;2023-07-28T00:39:13;96447.41;;;15.26;100.00
78170;BME280;67412;49.892;14.490;2023-07-28T00:41:39;96456.56;;;15.33;100.00
78170;BME280;67412;49.892;14.490;2023-07-28T00:44:04;96447.31;;;15.29;100.00
78170;BME280;67412;49.892;14.490;2023-07-28T00:46:30;96448.00;;;15.33;100.00
78170;BME280;67412;49.892;14.490;2023-07-28T00:48:55;96442.94;;;15.30;100.00
78170;BME280;67412;49.892;14.490;2023-07-28T00:51:21;96432.69;;;15.28;100.00
78170;BME280;67412;49.892;14.490;2023-07-28T00:53:46;96432.69;;;15.28;100.00
78170;BME280;67412;49.892;14.490;2023-07-28T00:56:12;96435.41;;;15.25;100.00
78170;BME280;67412;49.892;14.490;2023-07-28T00:58:37;96432.03;;;15.23;100.00
78170;BME280;67412;49.892;14.490;2023-07-28T01:01:03;96433.03;;;15.21;100.00
78170;BME280;67412;49.892;14.490;2023-07-28T01:03:28;96432.19;;;15.20;100.00
78170;BME280;67412;49.892;14.490;2023-07-28T01:08:55;96429.91;;;15.14;100.00
78170;BME280;67412;49.892;14.490;2023-07-28T01:11:22;96430.84;;;15.12;100.00
78170;BME280;67412;49.892;14.490;2023-07-28T01:13:47;96425.88;;;15.07;100.00
78170;BME280;67412;49.892;14.490;2023-07-28T01:16:12;96418.84;;;15.11;100.00
78170;BME280;67412;49.892;14.490;2023-07-28T01:18:38;96415.34;;;15.12;100.00
78170;BME280;67412;49.892;14.490;2023-07-28T01:21:06;96412.69;;;15.13;100.00
78170;BME280;67412;49.892;14.490;2023-07-28T01:26:25;96404.84;;;15.15;100.00
78170;BME280;67412;49.892;14.490;2023-07-28T01:28:51;96405.84;;;15.12;100.00
78170;BME280;67412;49.892;14.490;2023-07-28T01:31:17;96406.88;;;15.08;100.00
78170;BME280;67412;49.892;14.490;2023-07-28T01:33:42;96406.72;;;15.11;100.00
78170;BME280;67412;49.892;14.490;2023-07-28T01:36:08;96402.50;;;15.10;100.00
78170;BME280;67412;49.892;14.490;2023-07-28T01:38:33;96399.13;;;15.08;100.00
78170;BME280;67412;49.892;14.490;2023-07-28T01:40:59;96401.56;;;15.11;100.00
78170;BME280;67412;49.892;14.490;2023-07-28T01:43:24;96404.84;;;15.15;100.00
78170;BME280;67412;49.892;14.490;2023-07-28T01:45:49;96405.78;;;15.14;100.00
78170;BME280;67412;49.892;14.490;2023-07-28T01:48:15;96403.25;;;15.12;100.00
78170;BME280;67412;49.892;14.490;2023-07-28T01:50:40;96402.03;;;15.19;100.00
78170;BME280;67412;49.892;14.490;2023-07-28T01:53:07;96405.63;;;15.17;100.00
78170;BME280;67412;49.892;14.490;2023-07-28T01:55:33;96396.88;;;15.19;100.00
78170;BME280;67412;49.892;14.490;2023-07-28T01:58:00;96399.41;;;15.21;100.00
78170;BME280;67412;49.892;14.490;2023-07-28T02:00:26;96393.06;;;15.26;100.00
78170;BME280;67412;49.892;14.490;2023-07-28T02:02:52;96394.00;;;15.25;100.00
78170;BME280;67412;49.892;14.490;2023-07-28T02:05:17;96378.53;;;15.24;100.00
78170;BME280;67412;49.892;14.490;2023-07-28T02:07:43;96382.97;;;15.22;100.00
78170;BME280;67412;49.892;14.490;2023-07-28T02:10:09;96388.25;;;15.19;100.00
78170;BME280;67412;49.892;14.490;2023-07-28T02:12:38;96381.72;;;15.12;100.00
78170;BME280;67412;49.892;14.490;2023-07-28T02:15:05;96383.44;;;15.11;100.00
78170;BME280;67412;49.892;14.490;2023-07-28T02:17:31;96388.75;;;15.27;100.00
78170;BME280;67412;49.892;14.490;2023-07-28T02:19:56;96385.41;;;15.25;100.00
78170;BME280;67412;49.892;14.490;2023-07-28T02:22:22;96378.41;;;15.27;100.00
78170;BME280;67412;49.892;14.490;2023-07-28T02:24:47;96377.50;;;15.28;100.00
78170;BME280;67412;49.892;14.490;2023-07-28T02:27:12;96377.66;;;15.25;100.00
78170;BME280;67412;49.892;14.490;2023-07-28T02:29:37;96374.06;;;15.27;100.00
78170;BME280;67412;49.892;14.490;2023-07-28T02:32:03;96372.53;;;15.23;100.00
78170;BME280;67412;49.892;14.490;2023-07-28T02:34:28;96379.03;;;15.32;100.00
78170;BME280;67412;49.892;14.490;2023-07-28T02:36:54;96375.44;;;15.34;100.00
78170;BME280;67412;49.892;14.490;2023-07-28T02:39:19;96372.78;;;15.36;100.00
78170;BME280;67412;49.892;14.490;2023-07-28T02:41:45;96371.03;;;15.36;100.00
78170;BME280;67412;49.892;14.490;2023-07-28T02:44:11;96371.94;;;15.35;100.00
78170;BME280;67412;49.892;14.490;2023-07-28T02:46:36;96372.09;;;15.32;100.00
78170;BME280;67412;49.892;14.490;2023-07-28T02:49:02;96379.78;;;15.34;100.00
78170;BME280;67412;49.892;14.490;2023-07-28T02:51:29;96380.81;;;15.30;100.00
78170;BME280;67412;49.892;14.490;2023-07-28T02:53:54;96388.53;;;15.31;100.00
78170;BME280;67412;49.892;14.490;2023-07-28T02:56:20;96385.19;;;15.29;100.00
78170;BME280;67412;49.892;14.490;2023-07-28T02:58:45;96386.84;;;15.30;100.00
78170;BME280;67412;49.892;14.490;2023-07-28T03:01:11;96382.59;;;15.29;100.00
78170;BME280;67412;49.892;14.490;2023-07-28T03:03:37;96382.66;;;15.28;100.00
78170;BME280;67412;49.892;14.490;2023-07-28T03:06:02;96385.78;;;15.34;100.00
78170;BME280;67412;49.892;14.490;2023-07-28T03:08:28;96378.72;;;15.38;100.00
78170;BME280;67412;49.892;14.490;2023-07-28T03:10:57;96390.00;;;15.37;100.00
78170;BME280;67412;49.892;14.490;2023-07-28T03:13:22;96394.25;;;15.38;100.00
78170;BME280;67412;49.892;14.490;2023-07-28T03:15:48;96387.31;;;15.38;100.00
78170;BME280;67412;49.892;14.490;2023-07-28T03:18:13;96385.38;;;15.43;100.00
78170;BME280;67412;49.892;14.490;2023-07-28T03:20:38;96387.16;;;15.41;100.00
78170;BME280;67412;49.892;14.490;2023-07-28T03:23:04;96387.84;;;15.45;100.00
78170;BME280;67412;49.892;14.490;2023-07-28T03:25:29;96393.88;;;15.45;100.00
78170;BME280;67412;49.892;14.490;2023-07-28T03:27:54;96388.69;;;15.45;100.00
78170;BME280;67412;49.892;14.490;2023-07-28T03:30:20;96387.75;;;15.48;100.00
78170;BME280;67412;49.892;14.490;2023-07-28T03:32:45;96391.94;;;15.51;100.00
78170;BME280;67412;49.892;14.490;2023-07-28T03:35:10;96387.69;;;15.50;100.00
78170;BME280;67412;49.892;14.490;2023-07-28T03:37:35;96390.13;;;15.53;100.00
78170;BME280;67412;49.892;14.490;2023-07-28T03:40:01;96388.16;;;15.58;100.00
78170;BME280;67412;49.892;14.490;2023-07-28T03:42:26;96391.03;;;15.52;100.00
78170;BME280;67412;49.892;14.490;2023-07-28T03:44:52;96389.31;;;15.52;100.00
78170;BME280;67412;49.892;14.490;2023-07-28T03:47:17;96384.94;;;15.53;100.00
78170;BME280;67412;49.892;14.490;2023-07-28T03:49:42;96383.97;;;15.55;100.00
78170;BME280;67412;49.892;14.490;2023-07-28T03:52:08;96393.84;;;15.64;100.00
78170;BME280;67412;49.892;14.490;2023-07-28T03:54:33;96388.00;;;15.61;100.00
78170;BME280;67412;49.892;14.490;2023-07-28T03:56:58;96390.78;;;15.56;100.00
78170;BME280;67412;49.892;14.490;2023-07-28T03:59:24;96390.75;;;15.58;100.00
78170;BME280;67412;49.892;14.490;2023-07-28T04:01:49;96394.16;;;15.58;100.00
78170;BME280;67412;49.892;14.490;2023-07-28T04:04:15;96383.72;;;15.60;100.00
78170;BME280;67412;49.892;14.490;2023-07-28T04:06:47;96389.84;;;15.59;100.00
78170;BME280;67412;49.892;14.490;2023-07-28T04:09:16;96388.31;;;15.55;100.00
78170;BME280;67412;49.892;14.490;2023-07-28T04:11:41;96383.34;;;15.67;100.00
78170;BME280;67412;49.892;14.490;2023-07-28T04:14:07;96381.75;;;15.65;100.00
78170;BME280;67412;49.892;14.490;2023-07-28T04:16:33;96385.50;;;15.59;100.00
78170;BME280;67412;49.892;14.490;2023-07-28T04:18:58;96386.56;;;15.55;100.00
78170;BME280;67412;49.892;14.490;2023-07-28T04:21:23;96387.31;;;15.57;100.00
78170;BME280;67412;49.892;14.490;2023-07-28T04:23:49;96389.91;;;15.57;100.00
78170;BME280;67412;49.892;14.490;2023-07-28T04:26:16;96394.84;;;15.62;100.00
78170;BME280;67412;49.892;14.490;2023-07-28T04:28:42;96394.59;;;15.49;100.00
78170;BME280;67412;49.892;14.490;2023-07-28T04:31:08;96397.13;;;15.51;100.00
78170;BME280;67412;49.892;14.490;2023-07-28T04:33:33;96401.47;;;15.50;100.00
78170;BME280;67412;49.892;14.490;2023-07-28T04:35:59;96407.75;;;15.44;100.00
78170;BME280;67412;49.892;14.490;2023-07-28T04:38:24;96415.19;;;15.52;100.00
78170;BME280;67412;49.892;14.490;2023-07-28T04:40:50;96407.81;;;15.43;100.00
78170;BME280;67412;49.892;14.490;2023-07-28T04:43:15;96415.94;;;15.35;100.00
78170;BME280;67412;49.892;14.490;2023-07-28T04:45:40;96412.50;;;15.35;100.00
78170;BME280;67412;49.892;14.490;2023-07-28T04:48:06;96410.06;;;15.32;100.00
78170;BME280;67412;49.892;14.490;2023-07-28T04:50:31;96412.66;;;15.32;100.00
78170;BME280;67412;49.892;14.490;2023-07-28T04:52:59;96421.13;;;15.35;100.00
78170;BME280;67412;49.892;14.490;2023-07-28T04:55:24;96416.69;;;15.37;100.00
78170;BME280;67412;49.892;14.490;2023-07-28T04:57:52;96419.91;;;15.42;100.00
78170;BME280;67412;49.892;14.490;2023-07-28T05:00:17;96418.38;;;15.38;100.00
78170;BME280;67412;49.892;14.490;2023-07-28T05:02:43;96421.19;;;15.34;100.00
78170;BME280;67412;49.892;14.490;2023-07-28T05:05:08;96419.38;;;15.36;100.00
78170;BME280;67412;49.892;14.490;2023-07-28T05:07:33;96417.53;;;15.38;100.00
78170;BME280;67412;49.892;14.490;2023-07-28T05:09:58;96417.25;;;15.44;100.00
78170;BME280;67412;49.892;14.490;2023-07-28T05:12:24;96413.06;;;15.41;100.00
78170;BME280;67412;49.892;14.490;2023-07-28T05:14:49;96419.59;;;15.50;100.00
78170;BME280;67412;49.892;14.490;2023-07-28T05:17:14;96418.47;;;15.56;100.00
78170;BME280;67412;49.892;14.490;2023-07-28T05:19:40;96416.56;;;15.76;100.00
78170;BME280;67412;49.892;14.490;2023-07-28T05:22:05;96428.69;;;15.76;100.00
78170;BME280;67412;49.892;14.490;2023-07-28T05:24:32;96423.22;;;15.82;100.00
78170;BME280;67412;49.892;14.490;2023-07-28T05:26:58;96429.75;;;15.89;100.00
78170;BME280;67412;49.892;14.490;2023-07-28T05:29:23;96420.31;;;15.88;100.00
78170;BME280;67412;49.892;14.490;2023-07-28T05:31:48;96418.34;;;15.93;100.00
78170;BME280;67412;49.892;14.490;2023-07-28T05:34:14;96422.53;;;15.95;100.00
78170;BME280;67412;49.892;14.490;2023-07-28T05:36:39;96432.25;;;15.90;100.00
78170;BME280;67412;49.892;14.490;2023-07-28T05:39:04;96428.81;;;15.90;100.00
78170;BME280;67412;49.892;14.490;2023-07-28T05:41:30;96427.84;;;15.92;100.00
78170;BME280;67412;49.892;14.490;2023-07-28T05:43:55;96436.47;;;15.93;100.00
78170;BME280;67412;49.892;14.490;2023-07-28T05:46:21;96434.47;;;15.98;100.00
78170;BME280;67412;49.892;14.490;2023-07-28T05:48:46;96433.50;;;16.01;100.00
78170;BME280;67412;49.892;14.490;2023-07-28T05:51:11;96439.22;;;16.07;100.00
78170;BME280;67412;49.892;14.490;2023-07-28T05:53:36;96435.63;;;15.92;100.00
78170;BME280;67412;49.892;14.490;2023-07-28T05:56:02;96442.03;;;16.03;100.00
78170;BME280;67412;49.892;14.490;2023-07-28T05:58:27;96450.47;;;16.06;100.00
78170;BME280;67412;49.892;14.490;2023-07-28T06:00:52;96438.91;;;16.13;100.00
78170;BME280;67412;49.892;14.490;2023-07-28T06:03:18;96436.59;;;16.24;100.00
78170;BME280;67412;49.892;14.490;2023-07-28T06:05:43;96441.16;;;16.36;100.00
78170;BME280;67412;49.892;14.490;2023-07-28T06:08:09;96447.25;;;16.35;100.00
78170;BME280;67412;49.892;14.490;2023-07-28T06:10:34;96447.94;;;16.39;100.00
78170;BME280;67412;49.892;14.490;2023-07-28T06:13:00;96449.56;;;16.41;100.00
78170;BME280;67412;49.892;14.490;2023-07-28T06:15:25;96452.06;;;16.43;100.00
78170;BME280;67412;49.892;14.490;2023-07-28T06:17:51;96456.78;;;16.35;100.00
78170;BME280;67412;49.892;14.490;2023-07-28T06:20:17;96461.75;;;16.39;100.00
78170;BME280;67412;49.892;14.490;2023-07-28T06:22:42;96455.88;;;16.36;100.00
78170;BME280;67412;49.892;14.490;2023-07-28T06:25:08;96458.75;;;16.47;100.00
78170;BME280;67412;49.892;14.490;2023-07-28T06:27:33;96457.31;;;16.59;100.00
78170;BME280;67412;49.892;14.490;2023-07-28T06:29:58;96451.97;;;16.62;100.00
78170;BME280;67412;49.892;14.490;2023-07-28T06:32:24;96450.88;;;16.83;100.00
78170;BME280;67412;49.892;14.490;2023-07-28T06:34:49;96455.72;;;16.89;100.00
78170;BME280;67412;49.892;14.490;2023-07-28T06:37:15;96460.75;;;16.92;100.00
78170;BME280;67412;49.892;14.490;2023-07-28T06:39:41;96462.09;;;16.99;100.00
78170;BME280;67412;49.892;14.490;2023-07-28T06:42:07;96460.78;;;17.08;100.00
78170;BME280;67412;49.892;14.490;2023-07-28T06:44:32;96459.94;;;17.07;100.00
78170;BME280;67412;49.892;14.490;2023-07-28T06:46:57;96468.72;;;17.05;100.00
78170;BME280;67412;49.892;14.490;2023-07-28T06:49:23;96465.63;;;17.14;100.00
78170;BME280;67412;49.892;14.490;2023-07-28T06:51:48;96456.03;;;17.31;100.00
78170;BME280;67412;49.892;14.490;2023-07-28T06:54:13;96465.56;;;17.31;99.87
78170;BME280;67412;49.892;14.490;2023-07-28T06:56:39;96467.81;;;17.37;100.00
78170;BME280;67412;49.892;14.490;2023-07-28T06:59:06;96467.22;;;17.48;99.23
78170;BME280;67412;49.892;14.490;2023-07-28T07:01:32;96468.28;;;17.61;100.00
78170;BME280;67412;49.892;14.490;2023-07-28T07:03:57;96462.63;;;17.53;100.00
78170;BME280;67412;49.892;14.490;2023-07-28T07:06:22;96461.41;;;17.60;99.80
78170;BME280;67412;49.892;14.490;2023-07-28T07:08:48;96462.16;;;17.62;99.42
78170;BME280;67412;49.892;14.490;2023-07-28T07:11:13;96462.84;;;17.65;97.30
78170;BME280;67412;49.892;14.490;2023-07-28T07:13:38;96449.53;;;17.85;99.92
78170;BME280;67412;49.892;14.490;2023-07-28T07:16:04;96454.91;;;17.82;98.00
78170;BME280;67412;49.892;14.490;2023-07-28T07:18:31;96469.66;;;17.82;99.22
78170;BME280;67412;49.892;14.490;2023-07-28T07:21:01;96466.38;;;17.94;98.12
78170;BME280;67412;49.892;14.490;2023-07-28T07:23:27;96459.72;;;18.04;99.09
78170;BME280;67412;49.892;14.490;2023-07-28T07:25:53;96451.38;;;17.99;98.11
78170;BME280;67412;49.892;14.490;2023-07-28T07:28:18;96464.91;;;18.04;98.94
78170;BME280;67412;49.892;14.490;2023-07-28T07:30:43;96471.13;;;18.02;98.21
78170;BME280;67412;49.892;14.490;2023-07-28T07:33:08;96469.38;;;18.02;100.00
78170;BME280;67412;49.892;14.490;2023-07-28T07:35:37;96472.81;;;18.03;100.00
78170;BME280;67412;49.892;14.490;2023-07-28T07:38:04;96478.72;;;17.91;99.58
78170;BME280;67412;49.892;14.490;2023-07-28T07:40:34;96479.13;;;17.83;100.00
78170;BME280;67412;49.892;14.490;2023-07-28T07:42:59;96478.88;;;17.88;100.00
78170;BME280;67412;49.892;14.490;2023-07-28T07:45:25;96494.88;;;17.96;100.00
78170;BME280;67412;49.892;14.490;2023-07-28T07:47:50;96496.72;;;17.94;100.00
78170;BME280;67412;49.892;14.490;2023-07-28T07:50:15;96498.06;;;17.85;99.29
78170;BME280;67412;49.892;14.490;2023-07-28T07:52:41;96504.28;;;17.82;99.06
78170;BME280;67412;49.892;14.490;2023-07-28T07:55:06;96507.97;;;17.78;99.18
78170;BME280;67412;49.892;14.490;2023-07-28T07:57:32;96504.03;;;17.87;99.81
78170;BME280;67412;49.892;14.490;2023-07-28T07:59:58;96511.06;;;17.85;99.66
78170;BME280;67412;49.892;14.490;2023-07-28T08:02:24;96515.09;;;17.91;100.00
78170;BME280;67412;49.892;14.490;2023-07-28T08:04:51;96516.25;;;17.85;100.00
78170;BME280;67412;49.892;14.490;2023-07-28T08:07:16;96509.16;;;17.73;100.00
78170;BME280;67412;49.892;14.490;2023-07-28T08:09:42;96510.38;;;17.97;100.00
78170;BME280;67412;49.892;14.490;2023-07-28T08:12:08;96510.19;;;18.00;99.21
78170;BME280;67412;49.892;14.490;2023-07-28T08:14:33;96500.16;;;17.94;99.31
78170;BME280;67412;49.892;14.490;2023-07-28T08:16:59;96497.78;;;18.05;97.74
78170;BME280;67412;49.892;14.490;2023-07-28T08:19:24;96492.22;;;18.11;98.85
78170;BME280;67412;49.892;14.490;2023-07-28T08:21:51;96500.09;;;18.25;97.85
78170;BME280;67412;49.892;14.490;2023-07-28T08:24:16;96501.41;;;18.32;98.57
78170;BME280;67412;49.892;14.490;2023-07-28T08:26:42;96486.56;;;18.49;96.43
78170;BME280;67412;49.892;14.490;2023-07-28T08:29:07;96475.63;;;18.44;96.36
78170;BME280;67412;49.892;14.490;2023-07-28T08:31:32;96477.16;;;18.62;96.62
78170;BME280;67412;49.892;14.490;2023-07-28T08:33:58;96491.09;;;18.75;95.41
78170;BME280;67412;49.892;14.490;2023-07-28T08:36:23;96491.41;;;18.99;95.50
78170;BME280;67412;49.892;14.490;2023-07-28T08:38:48;96506.66;;;18.91;91.80
78170;BME280;67412;49.892;14.490;2023-07-28T08:41:14;96509.88;;;18.80;94.87
78170;BME280;67412;49.892;14.490;2023-07-28T08:43:39;96504.41;;;18.85;96.47
78170;BME280;67412;49.892;14.490;2023-07-28T08:46:05;96508.50;;;18.89;95.45
78170;BME280;67412;49.892;14.490;2023-07-28T08:48:30;96506.56;;;19.06;95.89
78170;BME280;67412;49.892;14.490;2023-07-28T08:50:56;96512.13;;;19.14;94.02
78170;BME280;67412;49.892;14.490;2023-07-28T08:53:21;96516.22;;;19.18;93.50
78170;BME280;67412;49.892;14.490;2023-07-28T08:55:47;96515.31;;;19.19;92.44
78170;BME280;67412;49.892;14.490;2023-07-28T08:58:18;96515.31;;;19.19;92.93
78170;BME280;67412;49.892;14.490;2023-07-28T09:00:47;96513.63;;;19.18;94.17
78170;BME280;67412;49.892;14.490;2023-07-28T09:03:15;96516.13;;;19.06;95.22
78170;BME280;67412;49.892;14.490;2023-07-28T09:05:42;96515.09;;;18.94;95.01
78170;BME280;67412;49.892;14.490;2023-07-28T09:08:08;96515.81;;;18.82;95.66
78170;BME280;67412;49.892;14.490;2023-07-28T09:10:47;96516.47;;;18.71;96.66
78170;BME280;67412;49.892;14.490;2023-07-28T09:13:17;96517.44;;;18.85;94.86
78170;BME280;67412;49.892;14.490;2023-07-28T09:15:44;96522.25;;;18.76;96.18
78170;BME280;67412;49.892;14.490;2023-07-28T09:18:11;96521.97;;;18.81;95.50
78170;BME280;67412;49.892;14.490;2023-07-28T09:20:38;96520.31;;;18.94;95.38
78170;BME280;67412;49.892;14.490;2023-07-28T09:23:04;96517.91;;;19.05;94.20
78170;BME280;67412;49.892;14.490;2023-07-28T09:25:31;96518.28;;;19.13;93.32
78170;BME280;67412;49.892;14.490;2023-07-28T09:27:57;96518.38;;;19.26;94.13
78170;BME280;67412;49.892;14.490;2023-07-28T09:30:24;96505.47;;;19.65;91.64
78170;BME280;67412;49.892;14.490;2023-07-28T09:32:51;96519.38;;;19.52;91.88
78170;BME280;67412;49.892;14.490;2023-07-28T09:35:17;96518.28;;;19.56;90.75
78170;BME280;67412;49.892;14.490;2023-07-28T09:37:45;96518.72;;;19.62;88.99
78170;BME280;67412;49.892;14.490;2023-07-28T09:40:14;96516.06;;;19.76;89.23
78170;BME280;67412;49.892;14.490;2023-07-28T09:42:40;96514.47;;;19.88;88.02
78170;BME280;67412;49.892;14.490;2023-07-28T09:45:06;96507.19;;;20.20;84.30
78170;BME280;67412;49.892;14.490;2023-07-28T09:47:34;96511.72;;;20.31;86.17
78170;BME280;67412;49.892;14.490;2023-07-28T09:50:05;96518.75;;;20.16;85.45
78170;BME280;67412;49.892;14.490;2023-07-28T09:52:33;96500.63;;;20.27;84.81
78170;BME280;67412;49.892;14.490;2023-07-28T09:55:05;96511.22;;;20.51;85.74
78170;BME280;67412;49.892;14.490;2023-07-28T09:57:37;96509.50;;;20.77;81.52
78170;BME280;67412;49.892;14.490;2023-07-28T10:00:04;96501.66;;;20.89;80.02
78170;BME280;67412;49.892;14.490;2023-07-28T10:02:30;96500.91;;;21.00;80.16
78170;BME280;67412;49.892;14.490;2023-07-28T10:04:56;96497.59;;;21.10;81.15
78170;BME280;67412;49.892;14.490;2023-07-28T10:07:23;96502.56;;;21.51;78.44
78170;BME280;67412;49.892;14.490;2023-07-28T10:09:49;96505.38;;;21.48;77.53
78170;BME280;67412;49.892;14.490;2023-07-28T10:12:18;96509.53;;;21.14;76.11
78170;BME280;67412;49.892;14.490;2023-07-28T10:15:00;96504.09;;;21.17;76.52
78170;BME280;67412;49.892;14.490;2023-07-28T10:17:31;96503.25;;;21.17;79.07
78170;BME280;67412;49.892;14.490;2023-07-28T10:19:57;96500.50;;;21.06;75.15
78170;BME280;67412;49.892;14.490;2023-07-28T10:22:26;96513.03;;;21.39;77.06
78170;BME280;67412;49.892;14.490;2023-07-28T10:25:01;96507.75;;;21.64;77.04
78170;BME280;67412;49.892;14.490;2023-07-28T10:30:00;96521.81;;;21.38;74.46
78170;BME280;67412;49.892;14.490;2023-07-28T10:32:27;96523.97;;;21.56;71.61
78170;BME280;67412;49.892;14.490;2023-07-28T10:35:00;96533.50;;;21.57;74.51
78170;BME280;67412;49.892;14.490;2023-07-28T10:37:26;96530.72;;;21.72;75.22
78170;BME280;67412;49.892;14.490;2023-07-28T10:42:52;96533.84;;;21.28;74.26
78170;BME280;67412;49.892;14.490;2023-07-28T10:45:18;96531.72;;;21.07;75.16
78170;BME280;67412;49.892;14.490;2023-07-28T10:47:45;96534.28;;;21.22;75.87
78170;BME280;67412;49.892;14.490;2023-07-28T10:50:11;96547.75;;;21.15;74.61
78170;BME280;67412;49.892;14.490;2023-07-28T10:52:40;96545.44;;;20.98;75.10
78170;BME280;67412;49.892;14.490;2023-07-28T10:57:38;96542.50;;;21.03;74.61
78170;BME280;67412;49.892;14.490;2023-07-28T11:00:04;96535.59;;;20.89;74.71
78170;BME280;67412;49.892;14.490;2023-07-28T11:02:30;96538.44;;;21.11;75.62
78170;BME280;67412;49.892;14.490;2023-07-28T11:04:56;96544.94;;;21.31;73.91
78170;BME280;67412;49.892;14.490;2023-07-28T11:07:21;96534.78;;;21.27;73.62
78170;BME280;67412;49.892;14.490;2023-07-28T11:09:47;96536.78;;;21.23;73.34
78170;BME280;67412;49.892;14.490;2023-07-28T11:12:12;96539.28;;;21.25;73.42
78170;BME280;67412;49.892;14.490;2023-07-28T11:14:38;96543.16;;;21.44;72.94
78170;BME280;67412;49.892;14.490;2023-07-28T11:17:05;96543.25;;;21.79;71.32
78170;BME280;67412;49.892;14.490;2023-07-28T11:19:30;96541.66;;;22.02;69.57
78170;BME280;67412;49.892;14.490;2023-07-28T11:21:56;96532.97;;;22.01;70.33
78170;BME280;67412;49.892;14.490;2023-07-28T11:24:23;96537.03;;;21.69;70.17
78170;BME280;67412;49.892;14.490;2023-07-28T11:26:49;96543.31;;;21.66;71.17
78170;BME280;67412;49.892;14.490;2023-07-28T11:29:15;96541.72;;;22.37;67.82
78170;BME280;67412;49.892;14.490;2023-07-28T11:31:43;96529.78;;;22.33;66.87
78170;BME280;67412;49.892;14.490;2023-07-28T11:34:16;96537.97;;;22.28;68.30
78170;BME280;67412;49.892;14.490;2023-07-28T11:36:41;96536.25;;;22.16;68.97
78170;BME280;67412;49.892;14.490;2023-07-28T11:39:08;96533.00;;;22.36;68.75
78170;BME280;67412;49.892;14.490;2023-07-28T11:41:35;96543.72;;;22.33;68.07
78170;BME280;67412;49.892;14.490;2023-07-28T11:44:02;96538.16;;;22.38;67.42
78170;BME280;67412;49.892;14.490;2023-07-28T11:46:38;96540.38;;;22.07;66.61
78170;BME280;67412;49.892;14.490;2023-07-28T11:49:20;96533.19;;;21.98;68.77
78170;BME280;67412;49.892;14.490;2023-07-28T11:51:51;96536.50;;;22.48;67.63
78170;BME280;67412;49.892;14.490;2023-07-28T11:54:19;96534.66;;;23.07;65.43
78170;BME280;67412;49.892;14.490;2023-07-28T11:56:48;96530.72;;;22.90;67.25
78170;BME280;67412;49.892;14.490;2023-07-28T11:59:18;96524.03;;;22.86;66.09
78170;BME280;67412;49.892;14.490;2023-07-28T12:02:00;96531.38;;;23.49;64.48
78170;BME280;67412;49.892;14.490;2023-07-28T12:04:37;96513.81;;;23.83;61.75
78170;BME280;67412;49.892;14.490;2023-07-28T12:07:10;96530.19;;;23.53;62.18
78170;BME280;67412;49.892;14.490;2023-07-28T12:12:10;96511.97;;;24.17;61.41
78170;BME280;67412;49.892;14.490;2023-07-28T12:14:36;96540.47;;;24.22;59.38
78170;BME280;67412;49.892;14.490;2023-07-28T12:17:01;96528.56;;;24.06;61.17
78170;BME280;67412;49.892;14.490;2023-07-28T12:19:28;96528.84;;;24.35;60.60
78170;BME280;67412;49.892;14.490;2023-07-28T12:21:53;96529.25;;;24.08;60.60
78170;BME280;67412;49.892;14.490;2023-07-28T12:24:18;96525.56;;;24.00;60.34
78170;BME280;67412;49.892;14.490;2023-07-28T12:26:46;96531.41;;;24.15;58.54
78170;BME280;67412;49.892;14.490;2023-07-28T12:29:13;96524.94;;;24.19;59.16
78170;BME280;67412;49.892;14.490;2023-07-28T12:31:38;96532.63;;;24.42;57.66
78170;BME280;67412;49.892;14.490;2023-07-28T12:34:04;96522.56;;;24.04;57.86
78170;BME280;67412;49.892;14.490;2023-07-28T12:36:29;96531.41;;;24.03;58.59
78170;BME280;67412;49.892;14.490;2023-07-28T12:38:55;96527.91;;;23.60;59.39
78170;BME280;67412;49.892;14.490;2023-07-28T12:41:20;96531.47;;;23.59;61.68
78170;BME280;67412;49.892;14.490;2023-07-28T12:43:45;96525.88;;;23.30;61.21
78170;BME280;67412;49.892;14.490;2023-07-28T12:46:11;96536.28;;;23.43;62.45
78170;BME280;67412;49.892;14.490;2023-07-28T12:48:37;96531.03;;;23.54;61.30
78170;BME280;67412;49.892;14.490;2023-07-28T12:51:03;96527.25;;;24.01;59.43
78170;BME280;67412;49.892;14.490;2023-07-28T12:53:28;96527.72;;;24.17;60.06
78170;BME280;67412;49.892;14.490;2023-07-28T12:55:53;96524.63;;;24.44;59.28